Time;durP1;ratioP1;P1;durP2;ratioP2;P2;SDS_P1;SDS_P2;PMS_P1;PMS_P2;Temp;Humidity;BMP_temperature;BMP_pressure;BME280_temperature;BME280_humidity;BME280_pressure;Samples;Min_cycle;Max_cycle;Signal;HPM_P1;HPM_P2
2022/02/28 00:02:14;;;;;;;18.33;5.80;;;;;;;4.01;62.71;102872.34;5018408;28;20496;-50
2022/02/28 00:04:39;;;;;;;16.77;6.05;;;;;;;3.92;63.26;102877.25;5026525;28;20470;-50
2022/02/28 00:07:04;;;;;;;13.43;5.90;;;;;;;3.97;62.81;102880.47;5025023;28;20034;-51
2022/02/28 00:09:30;;;;;;;13.90;5.80;;;;;;;3.99;63.28;102882.22;5025339;28;20547;-48
2022/02/28 00:11:55;;;;;;;13.75;5.95;;;;;;;3.93;63.04;102883.44;5031070;28;20125;-49
2022/02/28 00:14:21;;;;;;;16.27;5.68;;;;;;;3.95;63.01;102881.53;5028686;28;20030;-49
2022/02/28 00:16:47;;;;;;;18.90;6.50;;;;;;;3.93;62.63;102883.44;5024858;28;20168;-51
2022/02/28 00:19:12;;;;;;;11.13;5.68;;;;;;;3.95;62.44;102882.41;5014326;28;20033;-48
2022/02/28 00:21:38;;;;;;;16.98;5.22;;;;;;;3.94;62.90;102886.00;5027218;28;20465;-50
2022/02/28 00:24:03;;;;;;;11.57;5.20;;;;;;;3.92;62.68;102879.91;5025352;28;20033;-50
2022/02/28 00:26:29;;;;;;;14.13;5.53;;;;;;;3.91;62.97;102880.84;5024585;28;20034;-47
2022/02/28 00:28:54;;;;;;;12.60;5.78;;;;;;;3.87;63.38;102897.97;5036161;28;20492;-47
2022/02/28 00:31:19;;;;;;;19.35;6.65;;;;;;;3.84;62.92;102898.13;5036579;28;20465;-48
2022/02/28 00:33:45;;;;;;;13.02;5.25;;;;;;;3.85;62.87;102896.34;5037235;28;20026;-50
2022/02/28 00:36:10;;;;;;;14.30;5.63;;;;;;;3.79;62.62;102899.31;5036437;28;20030;-49
2022/02/28 00:38:35;;;;;;;13.95;5.40;;;;;;;3.82;62.98;102904.47;5031581;28;20060;-50
2022/02/28 00:41:01;;;;;;;13.90;6.18;;;;;;;3.78;62.86;102903.81;5018579;28;20029;-47
2022/02/28 00:43:26;;;;;;;11.18;5.32;;;;;;;3.73;63.01;102901.38;5023056;28;20037;-47
2022/02/28 00:45:52;;;;;;;14.27;5.97;;;;;;;3.70;62.78;102904.22;5036317;28;20057;-47
2022/02/28 00:48:18;;;;;;;16.63;5.35;;;;;;;3.66;63.27;102904.47;5031923;28;20096;-47
2022/02/28 00:50:43;;;;;;;15.93;5.80;;;;;;;3.64;63.26;102914.38;5035496;28;20037;-46
2022/02/28 00:53:09;;;;;;;16.05;6.00;;;;;;;3.64;63.61;102909.91;5026338;28;20062;-47
2022/02/28 00:55:34;;;;;;;12.25;5.63;;;;;;;3.65;62.45;102916.94;5026446;28;20036;-46
2022/02/28 00:57:59;;;;;;;14.13;5.53;;;;;;;3.63;63.20;102916.16;5020598;28;20385;-48
2022/02/28 01:00:25;;;;;;;17.23;5.95;;;;;;;3.63;62.73;102916.16;5032666;28;20394;-48
2022/02/28 01:02:51;;;;;;;14.73;5.60;;;;;;;3.62;62.92;102922.44;5016077;28;20030;-48
2022/02/28 01:05:17;;;;;;;16.35;5.97;;;;;;;3.61;62.59;102915.41;5022185;28;20117;-47
2022/02/28 01:07:43;;;;;;;14.18;5.57;;;;;;;3.62;63.24;102922.44;5017085;28;20553;-49
2022/02/28 01:10:10;;;;;;;15.70;6.10;;;;;;;3.56;62.77;102912.16;5035673;28;20028;-48
2022/02/28 01:12:35;;;;;;;10.47;6.33;;;;;;;3.59;63.46;102913.78;5035856;28;20025;-49
2022/02/28 01:15:02;;;;;;;15.13;5.65;;;;;;;3.55;63.16;102907.75;5033707;28;20300;-46
2022/02/28 01:17:27;;;;;;;16.58;5.88;;;;;;;3.56;63.06;102913.97;5034522;28;20122;-50
2022/02/28 01:19:53;;;;;;;11.90;6.05;;;;;;;3.65;63.04;102910.75;5033895;28;20473;-48
2022/02/28 01:22:18;;;;;;;12.70;6.38;;;;;;;3.59;62.80;102911.97;5034977;28;20060;-47
2022/02/28 01:24:43;;;;;;;18.25;5.88;;;;;;;3.56;63.48;102911.28;5034936;28;20492;-49
2022/02/28 01:27:09;;;;;;;17.13;6.13;;;;;;;3.50;63.49;102912.47;5035536;28;20065;-48
2022/02/28 01:29:35;;;;;;;12.70;6.07;;;;;;;3.41;63.54;102910.34;5033614;28;20033;-49
2022/02/28 01:32:00;;;;;;;12.43;5.40;;;;;;;3.38;63.31;102915.81;5035278;28;20047;-48
2022/02/28 01:34:26;;;;;;;11.65;6.13;;;;;;;3.30;64.00;102917.09;5033314;28;20036;-47
2022/02/28 01:36:51;;;;;;;12.20;5.65;;;;;;;3.32;64.10;102914.38;5033867;28;20048;-48
2022/02/28 01:39:16;;;;;;;12.02;6.20;;;;;;;3.33;63.97;102904.56;5030877;28;20026;-48
2022/02/28 01:41:42;;;;;;;14.10;5.97;;;;;;;3.33;63.83;102910.75;5022624;28;20036;-47
2022/02/28 01:44:08;;;;;;;16.58;6.18;;;;;;;3.27;64.56;102909.28;5035010;28;20053;-47
2022/02/28 01:46:34;;;;;;;15.95;6.00;;;;;;;3.26;64.19;102907.53;5020067;28;20041;-47
2022/02/28 01:49:00;;;;;;;12.98;5.97;;;;;;;3.21;64.67;102900.75;5027577;28;20109;-47
2022/02/28 01:51:26;;;;;;;16.77;6.78;;;;;;;3.21;64.04;102901.66;5025409;28;20416;-47
2022/02/28 01:53:51;;;;;;;12.25;6.32;;;;;;;3.16;64.40;102908.13;5032920;28;20027;-47
2022/02/28 01:56:16;;;;;;;16.85;6.30;;;;;;;3.17;64.43;102912.53;5022231;28;20046;-47
2022/02/28 01:58:42;;;;;;;12.05;5.50;;;;;;;3.05;65.24;102906.94;5023128;28;20071;-47
2022/02/28 02:01:08;;;;;;;15.25;6.95;;;;;;;2.99;65.26;102911.72;5025350;28;20030;-47
2022/02/28 02:03:34;;;;;;;15.85;6.25;;;;;;;2.93;65.57;102915.56;5014569;28;20474;-46
2022/02/28 02:05:59;;;;;;;16.42;6.95;;;;;;;2.90;65.82;102914.84;5018960;28;20452;-46
2022/02/28 02:08:26;;;;;;;15.30;6.65;;;;;;;2.86;65.54;102917.66;5028004;28;20072;-47
2022/02/28 02:10:51;;;;;;;15.68;5.90;;;;;;;2.85;66.24;102915.97;5021357;28;20026;-47
2022/02/28 02:13:17;;;;;;;18.52;6.85;;;;;;;2.82;66.50;102908.16;5033313;28;20037;-47
2022/02/28 02:15:42;;;;;;;17.67;6.45;;;;;;;2.78;66.04;102914.56;5032381;28;20101;-49
2022/02/28 02:18:08;;;;;;;16.25;6.88;;;;;;;2.76;66.52;102911.09;5023066;28;20470;-50
2022/02/28 02:20:38;;;;;;;14.45;6.20;;;;;;;2.77;66.25;102918.16;5018077;28;20038;-48
2022/02/28 02:23:06;;;;;;;21.90;7.30;;;;;;;2.75;66.49;102914.72;5016729;28;20026;-49
2022/02/28 02:25:33;;;;;;;12.05;6.05;;;;;;;2.74;66.56;102918.34;5033233;28;20484;-48
2022/02/28 02:27:59;;;;;;;12.20;6.03;;;;;;;2.73;65.96;102921.06;5030352;28;20030;-46
2022/02/28 02:30:24;;;;;;;23.88;7.50;;;;;;;2.71;66.37;102921.13;5031476;28;20029;-47
2022/02/28 02:32:50;;;;;;;18.52;6.47;;;;;;;2.67;66.86;102911.59;5018105;28;20393;-48
2022/02/28 02:35:15;;;;;;;16.85;6.72;;;;;;;2.60;66.67;102910.19;5023945;28;20038;-51
2022/02/28 02:37:41;;;;;;;17.05;6.53;;;;;;;2.60;66.80;102908.38;5023626;28;20541;-48
2022/02/28 02:40:07;;;;;;;13.85;7.13;;;;;;;2.56;67.12;102904.19;5016835;28;20080;-49
2022/02/28 02:42:32;;;;;;;17.70;6.65;;;;;;;2.51;66.74;102906.22;5013935;28;20033;-48
2022/02/28 02:44:57;;;;;;;15.82;6.68;;;;;;;2.47;67.33;102906.44;5017003;28;20034;-47
2022/02/28 02:47:23;;;;;;;13.45;6.50;;;;;;;2.41;67.66;102904.97;5033926;28;20449;-48
2022/02/28 02:49:51;;;;;;;14.25;6.10;;;;;;;2.42;67.29;102896.94;5022232;28;20033;-48
2022/02/28 02:52:16;;;;;;;14.55;6.13;;;;;;;2.40;67.22;102893.50;5033521;28;20042;-49
2022/02/28 02:54:42;;;;;;;15.30;7.35;;;;;;;2.41;67.54;102895.19;5023055;28;20465;-49
2022/02/28 02:57:07;;;;;;;14.60;6.07;;;;;;;2.40;67.58;102892.63;5029208;28;20128;-49
2022/02/28 02:59:32;;;;;;;16.42;6.55;;;;;;;2.35;67.63;102890.19;5026738;28;20029;-48
2022/02/28 03:01:57;;;;;;;16.23;6.97;;;;;;;2.37;67.26;102892.75;5016737;28;20038;-50
2022/02/28 03:04:23;;;;;;;17.17;7.03;;;;;;;2.33;67.75;102897.38;5014316;28;20026;-50
2022/02/28 03:06:48;;;;;;;10.55;5.70;;;;;;;2.31;67.60;102888.63;5021784;28;20041;-48
2022/02/28 03:09:14;;;;;;;18.00;7.03;;;;;;;2.29;68.18;102879.91;5024517;28;20040;-50
2022/02/28 03:11:41;;;;;;;17.73;6.55;;;;;;;2.29;67.79;102885.22;5032357;28;20022;-47
2022/02/28 03:14:06;;;;;;;18.20;7.13;;;;;;;2.31;67.62;102877.13;5033638;28;20049;-47
2022/02/28 03:16:32;;;;;;;17.58;6.68;;;;;;;2.31;67.63;102888.63;5021612;28;20046;-49
2022/02/28 03:18:57;;;;;;;15.65;7.05;;;;;;;2.31;67.55;102883.31;5029172;28;20029;-48
2022/02/28 03:21:22;;;;;;;16.25;6.88;;;;;;;2.37;67.46;102871.50;5029626;28;20022;-48
2022/02/28 03:23:47;;;;;;;16.42;6.05;;;;;;;2.35;66.97;102868.94;5019915;28;20030;-50
2022/02/28 03:26:13;;;;;;;15.45;6.75;;;;;;;2.37;67.00;102877.72;5017461;28;20032;-48
2022/02/28 03:28:38;;;;;;;16.38;6.13;;;;;;;2.36;67.23;102873.31;5025847;28;20099;-47
2022/02/28 03:31:04;;;;;;;15.82;7.45;;;;;;;2.35;67.19;102868.09;5026258;28;20514;-50
2022/02/28 03:33:29;;;;;;;12.07;6.47;;;;;;;2.32;67.35;102874.41;5030404;28;20028;-48
2022/02/28 03:35:54;;;;;;;19.50;6.40;;;;;;;2.31;67.73;102878.00;5016314;28;20038;-47
2022/02/28 03:38:19;;;;;;;19.17;7.82;;;;;;;2.29;67.74;102879.00;5017224;28;20042;-48
2022/02/28 03:40:45;;;;;;;14.77;6.68;;;;;;;2.30;66.98;102875.44;5017750;28;20030;-48
2022/02/28 03:43:11;;;;;;;20.67;6.75;;;;;;;2.27;67.87;102871.13;5033152;28;20029;-49
2022/02/28 03:45:36;;;;;;;17.35;7.00;;;;;;;2.20;67.59;102870.56;5017309;28;20460;-48
2022/02/28 03:48:02;;;;;;;18.40;6.90;;;;;;;2.19;67.46;102868.88;5024737;28;20112;-48
2022/02/28 03:50:27;;;;;;;16.75;6.00;;;;;;;2.16;67.45;102873.50;5032359;28;20496;-47
2022/02/28 03:52:53;;;;;;;17.83;6.97;;;;;;;2.14;68.36;102867.38;5032581;28;20025;-46
2022/02/28 03:55:19;;;;;;;15.10;6.85;;;;;;;2.13;68.23;102868.31;5027162;28;20041;-47
2022/02/28 03:57:45;;;;;;;17.30;6.47;;;;;;;2.16;67.74;102862.88;5024836;28;20542;-47
2022/02/28 04:00:11;;;;;;;16.48;6.75;;;;;;;2.22;67.12;102867.84;5024475;28;20026;-47
2022/02/28 04:02:36;;;;;;;13.80;6.20;;;;;;;2.24;67.49;102859.78;5030485;28;20025;-47
2022/02/28 04:05:01;;;;;;;15.70;6.22;;;;;;;2.11;67.40;102859.56;5033873;28;20496;-48
2022/02/28 04:07:27;;;;;;;12.88;7.05;;;;;;;2.02;68.04;102860.03;5024100;28;20390;-48
2022/02/28 04:09:52;;;;;;;14.48;6.50;;;;;;;1.98;68.20;102854.88;5018799;28;20033;-47
2022/02/28 04:12:17;;;;;;;17.00;6.60;;;;;;;1.91;68.25;102855.25;5032247;28;20026;-48
2022/02/28 04:14:43;;;;;;;14.00;6.40;;;;;;;1.86;68.70;102850.16;5016448;28;20026;-47
2022/02/28 04:17:09;;;;;;;17.00;6.55;;;;;;;1.84;68.97;102852.03;5031026;28;20363;-47
2022/02/28 04:19:34;;;;;;;13.02;6.45;;;;;;;1.83;68.75;102850.31;5030901;28;20096;-48
2022/02/28 04:21:59;;;;;;;15.32;6.25;;;;;;;1.87;68.71;102851.00;5023269;28;20489;-48
2022/02/28 04:24:25;;;;;;;13.25;6.65;;;;;;;1.90;68.40;102846.44;5018007;28;20041;-47
2022/02/28 04:26:50;;;;;;;15.35;6.90;;;;;;;1.91;68.28;102845.47;5016459;28;20056;-47
2022/02/28 04:29:15;;;;;;;13.13;5.72;;;;;;;1.94;68.14;102847.97;5020833;28;20080;-47
2022/02/28 04:31:41;;;;;;;13.63;6.28;;;;;;;1.91;68.37;102848.13;5034598;28;20044;-49
2022/02/28 04:34:06;;;;;;;20.42;6.45;;;;;;;1.97;67.44;102850.50;5019263;28;20040;-48
2022/02/28 04:36:32;;;;;;;15.65;7.28;;;;;;;1.99;67.25;102847.75;5022384;28;20036;-47
2022/02/28 04:38:58;;;;;;;13.68;6.40;;;;;;;2.01;67.31;102853.00;5030109;28;20112;-47
2022/02/28 04:41:24;;;;;;;19.08;6.35;;;;;;;2.00;67.57;102846.81;5036065;28;20022;-46
2022/02/28 04:43:49;;;;;;;21.20;6.72;;;;;;;2.02;67.69;102860.03;5034940;28;20029;-47
2022/02/28 04:46:14;;;;;;;13.55;6.05;;;;;;;2.06;66.98;102850.97;5034839;28;20409;-49
2022/02/28 04:48:40;;;;;;;16.10;6.60;;;;;;;2.02;67.07;102849.41;5033292;28;20540;-48
2022/02/28 04:51:05;;;;;;;17.17;6.55;;;;;;;1.97;66.70;102853.16;5018527;28;20033;-47
2022/02/28 04:53:31;;;;;;;13.75;7.03;;;;;;;1.94;67.39;102850.63;5015676;28;20504;-48
2022/02/28 04:55:58;;;;;;;14.20;6.30;;;;;;;1.95;67.19;102843.56;5034474;28;20060;-50
2022/02/28 04:58:23;;;;;;;15.50;6.38;;;;;;;1.90;67.23;102845.56;5035349;28;20028;-48
2022/02/28 05:00:49;;;;;;;13.52;6.38;;;;;;;1.88;67.42;102839.47;5017520;28;20030;-47
2022/02/28 05:03:14;;;;;;;18.63;6.78;;;;;;;1.86;67.07;102847.50;5021146;28;20033;-47
2022/02/28 05:05:39;;;;;;;17.45;6.55;;;;;;;1.88;67.19;102847.44;5031483;28;20412;-50
2022/02/28 05:08:04;;;;;;;19.75;6.78;;;;;;;1.86;67.40;102855.47;5035444;28;20026;-46
2022/02/28 05:10:30;;;;;;;14.55;6.20;;;;;;;1.85;67.42;102848.44;5023703;28;20105;-46
2022/02/28 05:12:55;;;;;;;13.80;6.00;;;;;;;1.84;67.83;102845.84;5017851;28;20167;-46
2022/02/28 05:15:20;;;;;;;14.57;6.93;;;;;;;1.80;67.84;102850.47;5029829;28;20160;-46
2022/02/28 05:17:46;;;;;;;21.77;7.50;;;;;;;1.68;68.70;102849.25;5017207;28;20183;-47
2022/02/28 05:20:11;;;;;;;18.40;6.85;;;;;;;1.54;68.70;102847.28;5022243;28;20092;-47
2022/02/28 05:22:37;;;;;;;19.27;7.28;;;;;;;1.49;69.33;102853.75;5016476;28;20025;-46
2022/02/28 05:25:03;;;;;;;18.45;7.15;;;;;;;1.43;69.76;102857.56;5023047;28;20056;-46
2022/02/28 05:27:38;;;;;;;23.02;7.40;;;;;;;1.44;69.80;102859.25;5018701;28;20159;-47
2022/02/28 05:30:05;;;;;;;17.58;7.22;;;;;;;1.39;69.91;102863.94;5016359;28;20120;-46
2022/02/28 05:32:30;;;;;;;18.73;7.45;;;;;;;1.30;70.20;102862.56;5016559;28;20557;-47
2022/02/28 05:34:56;;;;;;;20.15;7.85;;;;;;;1.25;70.46;102863.72;5021521;28;20113;-48
2022/02/28 05:37:21;;;;;;;15.63;7.13;;;;;;;1.18;71.04;102854.34;5016673;28;20037;-46
2022/02/28 05:39:46;;;;;;;19.02;7.63;;;;;;;1.09;71.10;102869.75;5033849;28;20025;-49
2022/02/28 05:42:11;;;;;;;23.77;8.05;;;;;;;0.98;71.84;102860.56;5034002;28;20481;-48
2022/02/28 05:44:37;;;;;;;23.48;7.57;;;;;;;0.90;72.15;102868.88;5023762;28;20041;-47
2022/02/28 05:47:02;;;;;;;17.08;7.00;;;;;;;0.86;72.31;102869.94;5017939;28;20033;-49
2022/02/28 05:49:28;;;;;;;19.08;7.22;;;;;;;0.79;72.70;102873.78;5022597;28;20037;-49
2022/02/28 05:51:53;;;;;;;14.02;7.03;;;;;;;0.81;72.68;102879.88;5031749;28;20038;-50
2022/02/28 05:54:18;;;;;;;18.20;6.90;;;;;;;0.82;73.10;102881.63;5031461;28;20089;-49
2022/02/28 05:56:44;;;;;;;20.75;7.45;;;;;;;0.85;72.53;102886.78;5014507;28;20382;-47
2022/02/28 05:59:09;;;;;;;20.77;6.88;;;;;;;0.85;72.47;102884.13;5025090;28;20036;-46
2022/02/28 06:01:34;;;;;;;16.85;7.13;;;;;;;0.93;71.77;102891.72;5024886;28;20037;-48
2022/02/28 06:04:00;;;;;;;24.17;6.97;;;;;;;0.96;71.43;102887.16;5025592;28;20029;-48
2022/02/28 06:06:25;;;;;;;14.48;6.65;;;;;;;0.96;71.55;102888.94;5028289;28;20113;-48
2022/02/28 06:08:50;;;;;;;15.05;7.38;;;;;;;0.97;71.72;102888.00;5033450;28;20033;-48
2022/02/28 06:11:16;;;;;;;20.30;7.63;;;;;;;1.01;71.11;102887.78;5033937;28;20033;-51
2022/02/28 06:13:41;;;;;;;20.00;6.88;;;;;;;1.09;70.69;102890.09;5024630;28;20560;-48
2022/02/28 06:16:06;;;;;;;17.23;6.53;;;;;;;1.19;70.04;102883.44;5029377;28;20445;-47
2022/02/28 06:18:32;;;;;;;16.83;6.70;;;;;;;1.20;70.02;102889.59;5026950;28;20032;-47
2022/02/28 06:20:57;;;;;;;20.20;7.65;;;;;;;1.25;69.78;102892.91;5015620;28;20034;-49
2022/02/28 06:23:22;;;;;;;17.13;7.10;;;;;;;1.31;69.30;102892.63;5031551;28;20032;-50
2022/02/28 06:25:48;;;;;;;14.60;6.63;;;;;;;1.33;68.94;102890.75;5033228;28;20166;-48
2022/02/28 06:28:20;;;;;;;19.67;6.80;;;;;;;1.38;68.69;102899.38;5032918;28;20049;-47
2022/02/28 06:30:45;;;;;;;20.10;6.85;;;;;;;1.39;68.63;102902.88;5031929;28;20032;-47
2022/02/28 06:33:11;;;;;;;15.40;6.40;;;;;;;1.36;68.72;102903.88;5032505;28;20361;-48
2022/02/28 06:35:37;;;;;;;16.63;6.85;;;;;;;1.38;69.07;102903.81;5022011;28;20025;-47
2022/02/28 06:38:03;;;;;;;18.17;7.53;;;;;;;1.37;69.02;102889.69;5033591;28;20373;-48
2022/02/28 06:40:28;;;;;;;17.75;7.25;;;;;;;1.31;69.27;102890.81;5031572;28;20040;-48
2022/02/28 06:42:54;;;;;;;13.95;6.55;;;;;;;1.34;69.06;102904.88;5029343;28;20499;-49
2022/02/28 06:45:23;;;;;;;14.73;7.15;;;;;;;1.37;68.66;102899.41;5033530;28;20029;-47
2022/02/28 06:47:48;;;;;;;16.60;6.45;;;;;;;1.41;68.95;102907.19;5045842;28;20094;-51
2022/02/28 06:50:13;;;;;;;20.42;7.38;;;;;;;1.65;67.74;102902.50;5024228;28;20034;-49
2022/02/28 06:52:39;;;;;;;13.70;6.10;;;;;;;1.81;67.31;102905.28;5025610;28;20026;-48
2022/02/28 06:55:04;;;;;;;20.95;7.05;;;;;;;1.92;67.05;102908.28;5026488;28;20568;-52
2022/02/28 06:58:15;;;;;;;16.75;7.30;;;;;;;2.25;66.20;102917.31;5107682;27;20380;-49
2022/02/28 07:00:40;;;;;;;17.85;7.13;;;;;;;2.71;64.45;102913.16;5108587;28;20593;-48
2022/02/28 07:03:07;;;;;;;13.45;6.82;;;;;;;2.73;63.58;102921.06;5106155;28;20058;-50
2022/02/28 07:05:33;;;;;;;17.67;7.70;;;;;;;2.44;64.14;102917.25;5109432;28;20100;-48
2022/02/28 07:07:58;;;;;;;16.77;6.68;;;;;;;2.40;64.84;102933.34;5108783;28;20032;-48
2022/02/28 07:10:24;;;;;;;14.85;6.78;;;;;;;2.54;64.08;102921.16;5108568;28;20039;-50
2022/02/28 07:12:49;;;;;;;18.45;7.13;;;;;;;2.68;63.81;102931.06;5109243;28;20032;-49
2022/02/28 07:15:14;;;;;;;12.93;6.55;;;;;;;2.76;63.59;102931.53;5109817;28;20459;-52
2022/02/28 07:17:40;;;;;;;12.00;6.65;;;;;;;2.76;63.90;102937.69;5109602;28;20032;-50
2022/02/28 07:20:06;;;;;;;14.98;6.38;;;;;;;2.95;62.73;102942.94;5107693;28;20087;-48
2022/02/28 07:22:31;;;;;;;14.55;7.10;;;;;;;3.40;61.33;102943.22;5110379;28;20047;-49
2022/02/28 07:24:56;;;;;;;13.07;6.65;;;;;;;3.32;61.26;102946.31;5109145;28;20562;-52
2022/02/28 07:27:22;;;;;;;22.55;7.45;;;;;;;3.32;61.74;102945.41;5109341;28;20035;-49
2022/02/28 07:29:47;;;;;;;15.63;7.25;;;;;;;3.52;60.76;102945.19;5107163;28;20067;-48
2022/02/28 07:32:12;;;;;;;15.20;6.93;;;;;;;3.52;60.79;102943.38;5107003;28;20111;-50
2022/02/28 07:34:38;;;;;;;15.35;6.85;;;;;;;3.32;60.91;102950.75;5107353;28;20028;-49
2022/02/28 07:37:03;;;;;;;18.58;7.85;;;;;;;3.27;60.73;102957.19;5103746;28;20074;-50
2022/02/28 07:39:29;;;;;;;28.67;7.90;;;;;;;3.17;61.57;102949.78;5101093;28;20038;-53
2022/02/28 07:41:58;;;;;;;14.15;6.80;;;;;;;3.70;60.69;102952.16;5099768;28;20444;-52
2022/02/28 07:44:23;;;;;;;13.02;7.05;;;;;;;3.97;59.06;102948.91;5109800;28;20085;-48
2022/02/28 07:46:49;;;;;;;13.65;6.50;;;;;;;4.06;58.95;102932.41;5105511;28;20036;-50
2022/02/28 07:49:14;;;;;;;13.05;7.47;;;;;;;4.18;58.20;102939.66;5103514;28;20039;-50
2022/02/28 07:51:39;;;;;;;15.07;7.35;;;;;;;4.20;58.11;102938.75;5126867;28;20020;-50
2022/02/28 07:54:05;;;;;;;14.35;6.95;;;;;;;4.42;57.30;102955.19;5107188;28;20443;-51
2022/02/28 07:56:30;;;;;;;16.17;6.88;;;;;;;4.98;56.27;102960.78;5107802;28;20487;-54
2022/02/28 07:58:55;;;;;;;12.45;6.80;;;;;;;5.62;54.04;102950.56;5088693;28;20035;-53
2022/02/28 08:01:21;;;;;;;11.93;6.88;;;;;;;6.47;51.98;102961.94;5104203;28;20077;-48
2022/02/28 08:03:46;;;;;;;23.27;8.38;;;;;;;7.06;50.42;102959.69;5106568;28;20103;-47
2022/02/28 08:06:11;;;;;;;15.63;7.20;;;;;;;7.23;48.66;102956.66;5104977;28;20024;-46
2022/02/28 08:08:37;;;;;;;17.13;6.80;;;;;;;7.83;48.58;102960.44;5099548;28;20043;-46
2022/02/28 08:11:03;;;;;;;13.45;7.25;;;;;;;7.38;47.88;102953.88;5090974;28;20029;-43
2022/02/28 08:13:28;;;;;;;18.25;7.15;;;;;;;7.47;48.74;102958.56;5090570;28;20036;-44
2022/02/28 08:15:55;;;;;;;17.45;7.07;;;;;;;7.48;47.78;102965.66;5081564;28;20035;-44
2022/02/28 08:18:20;;;;;;;11.65;6.90;;;;;;;8.12;46.71;102960.97;5090641;28;20028;-44
2022/02/28 08:20:45;;;;;;;18.95;7.53;;;;;;;7.84;46.57;102961.28;5090192;28;20118;-46
2022/02/28 08:23:11;;;;;;;13.98;7.63;;;;;;;7.93;46.42;102965.97;5093635;28;20032;-45
2022/02/28 08:25:36;;;;;;;21.75;8.23;;;;;;;8.48;45.35;102967.25;5091581;28;20418;-44
2022/02/28 08:28:01;;;;;;;10.68;6.72;;;;;;;8.67;44.58;102961.34;5087903;28;20155;-43
2022/02/28 08:30:27;;;;;;;16.63;8.13;;;;;;;9.81;43.37;102955.91;5078779;28;20026;-42
2022/02/28 08:32:53;;;;;;;15.30;7.60;;;;;;;9.25;43.22;102955.94;5088540;28;20475;-44
2022/02/28 08:35:19;;;;;;;14.40;7.60;;;;;;;9.92;41.70;102954.19;5093179;28;20158;-43
2022/02/28 08:37:46;;;;;;;14.00;7.43;;;;;;;9.70;41.88;102947.00;5080955;28;20111;-43
2022/02/28 08:40:11;;;;;;;17.33;7.32;;;;;;;9.68;42.00;102941.75;5075094;28;20024;-43
2022/02/28 08:42:37;;;;;;;17.55;7.75;;;;;;;9.19;43.09;102943.88;5083244;28;20129;-44
2022/02/28 08:45:03;;;;;;;14.38;7.60;;;;;;;8.80;42.97;102950.53;5093520;28;20109;-43
2022/02/28 08:47:29;;;;;;;16.40;7.88;;;;;;;9.08;42.97;102942.97;5086976;28;20039;-43
2022/02/28 08:49:54;;;;;;;19.38;8.57;;;;;;;9.28;42.29;102936.03;5084572;28;20028;-44
2022/02/28 08:52:20;;;;;;;13.40;7.45;;;;;;;10.10;40.73;102937.38;5075171;28;20039;-43
2022/02/28 08:54:45;;;;;;;11.45;7.35;;;;;;;9.04;42.84;102930.78;5089668;28;20041;-43
2022/02/28 08:57:11;;;;;;;17.15;8.00;;;;;;;9.01;42.53;102938.09;5083966;28;20059;-46
2022/02/28 08:59:36;;;;;;;14.80;6.75;;;;;;;8.78;42.45;102926.47;5083667;28;20040;-46
2022/02/28 09:02:03;;;;;;;20.92;7.65;;;;;;;9.04;42.82;102909.31;5088877;28;20037;-45
2022/02/28 09:04:29;;;;;;;13.70;6.97;;;;;;;10.26;41.09;102907.34;5077014;28;20022;-45
2022/02/28 09:06:54;;;;;;;14.48;7.20;;;;;;;10.39;40.63;102909.88;5093187;28;20039;-44
2022/02/28 09:09:20;;;;;;;14.48;7.80;;;;;;;9.68;41.15;102912.19;5093381;28;20031;-43
2022/02/28 09:11:45;;;;;;;13.60;7.13;;;;;;;9.59;41.65;102899.50;5091002;28;20024;-44
2022/02/28 09:14:11;;;;;;;13.63;7.55;;;;;;;8.51;43.48;102899.94;5093399;28;20016;-43
2022/02/28 09:16:36;;;;;;;16.15;7.22;;;;;;;8.59;43.21;102903.88;5073534;28;20472;-42
2022/02/28 09:19:01;;;;;;;12.25;7.50;;;;;;;8.83;43.21;102904.63;5082394;28;20071;-45
2022/02/28 09:21:27;;;;;;;15.90;7.68;;;;;;;9.96;41.43;102912.59;5072697;28;20029;-42
2022/02/28 09:23:53;;;;;;;16.50;7.50;;;;;;;9.83;41.13;102913.59;5083440;28;20043;-46
2022/02/28 09:26:19;;;;;;;16.45;7.68;;;;;;;9.92;41.33;102906.59;5082978;28;20039;-42
2022/02/28 09:28:44;;;;;;;19.00;8.15;;;;;;;9.54;41.62;102890.94;5092209;28;20512;-47
2022/02/28 09:31:10;;;;;;;14.27;7.95;;;;;;;9.52;41.70;102882.16;5091722;28;20353;-45
2022/02/28 09:33:35;;;;;;;18.10;8.07;;;;;;;9.04;42.51;102883.28;5088967;28;20403;-46
2022/02/28 09:36:00;;;;;;;18.27;8.05;;;;;;;8.80;42.83;102888.78;5079198;28;20028;-47
2022/02/28 09:38:26;;;;;;;17.33;7.80;;;;;;;9.66;41.84;102889.94;5079923;28;20020;-47
2022/02/28 09:40:53;;;;;;;17.17;8.05;;;;;;;10.20;40.76;102889.03;5093495;28;20028;-50
2022/02/28 09:43:18;;;;;;;12.60;8.00;;;;;;;10.51;40.41;102886.47;5089186;28;20188;-47
2022/02/28 09:45:44;;;;;;;15.52;7.80;;;;;;;9.54;42.02;102899.00;5084310;28;20491;-47
2022/02/28 09:48:09;;;;;;;15.95;7.57;;;;;;;10.10;41.27;102893.47;5083752;28;20035;-47
2022/02/28 09:50:35;;;;;;;14.88;8.25;;;;;;;10.16;39.74;102901.00;5081800;28;20039;-45
2022/02/28 09:53:00;;;;;;;13.48;7.90;;;;;;;10.06;40.89;102897.41;5088099;28;20075;-47
2022/02/28 09:55:26;;;;;;;17.73;8.10;;;;;;;10.18;40.85;102907.13;5076019;28;20103;-47
2022/02/28 09:57:51;;;;;;;22.48;8.68;;;;;;;11.37;38.97;102912.16;5078701;28;20040;-47
2022/02/28 10:00:21;;;;;;;18.27;8.52;;;;;;;11.07;39.16;102915.69;5080458;28;20039;-47
2022/02/28 10:02:48;;;;;;;17.13;8.10;;;;;;;10.85;39.25;102921.22;5085113;28;20028;-46
2022/02/28 10:05:13;;;;;;;14.52;7.80;;;;;;;11.36;37.79;102914.97;5085476;28;20024;-47
2022/02/28 10:08:06;;;;;;;16.13;7.63;;;;;;;10.98;38.82;102919.22;5088120;28;20031;-46
2022/02/28 10:10:34;;;;;;;15.52;7.55;;;;;;;11.20;38.20;102915.47;5092853;28;20028;-47
2022/02/28 10:13:00;;;;;;;20.85;8.15;;;;;;;11.14;38.15;102922.25;5089680;28;20030;-47
2022/02/28 10:15:26;;;;;;;20.17;8.63;;;;;;;9.56;40.79;102913.19;5089192;28;20058;-47
2022/02/28 10:17:55;;;;;;;24.77;9.23;;;;;;;9.58;41.59;102924.66;5089213;28;20055;-47
2022/02/28 10:20:23;;;;;;;19.17;8.18;;;;;;;9.70;41.59;102925.50;5090793;28;20034;-47
2022/02/28 10:22:58;;;;;;;18.33;8.27;;;;;;;9.73;41.79;102934.16;5085794;28;20063;-47
2022/02/28 10:25:36;;;;;;;19.90;8.40;;;;;;;9.81;41.66;102934.38;5072659;28;20039;-46
2022/02/28 10:28:16;;;;;;;20.83;8.27;;;;;;;10.08;40.17;102936.66;5083737;28;20044;-46
2022/02/28 10:31:08;;;;;;;19.13;8.18;;;;;;;9.76;40.68;102922.31;5084540;28;20077;-45
2022/02/28 10:33:36;;;;;;;21.00;8.23;;;;;;;9.76;41.34;102919.63;5068893;28;20052;-45
2022/02/28 10:36:11;;;;;;;;;;;;;;;9.64;41.29;102929.56;5076830;28;20027;-47
2022/02/28 10:38:43;;;;;;;25.13;9.52;;;;;;;8.54;43.42;102931.91;5076357;28;20401;-47
2022/02/28 10:41:20;;;;;;;18.52;8.18;;;;;;;9.03;43.74;102913.81;5074144;28;20450;-45
2022/02/28 10:43:45;;;;;;;13.68;8.25;;;;;;;10.05;41.82;102918.06;5091864;28;20028;-47
2022/02/28 10:46:17;;;;;;;16.15;8.00;;;;;;;9.85;41.63;102910.81;5089219;28;20126;-46
2022/02/28 10:49:04;;;;;;;21.15;8.95;;;;;;;9.71;41.88;102903.84;5090002;28;20028;-46
2022/02/28 10:51:42;;;;;;;18.55;8.18;;;;;;;8.95;43.37;102905.47;5086469;28;20430;-46
2022/02/28 10:54:18;;;;;;;20.10;9.30;;;;;;;9.21;43.61;102911.47;5073310;28;20051;-47
2022/02/28 10:56:45;;;;;;;18.45;8.60;;;;;;;9.40;43.65;102901.00;5081480;28;20433;-47
2022/02/28 10:59:10;;;;;;;15.27;8.15;;;;;;;9.65;42.44;102893.59;5092680;28;20031;-48
2022/02/28 11:01:39;;;;;;;19.48;8.88;;;;;;;9.65;42.31;102907.91;5090635;28;20024;-49
2022/02/28 11:04:07;;;;;;;18.00;8.98;;;;;;;10.30;41.54;102910.66;5074301;28;20056;-48
2022/02/28 11:06:34;;;;;;;21.83;8.63;;;;;;;9.84;42.62;102912.63;5086219;28;20507;-49
2022/02/28 11:08:59;;;;;;;16.00;8.82;;;;;;;10.47;41.04;102918.16;5084526;28;20157;-48
2022/02/28 11:11:25;;;;;;;18.23;8.13;;;;;;;11.36;39.51;102905.03;5076705;28;20036;-51
2022/02/28 11:13:51;;;;;;;16.50;8.90;;;;;;;11.86;38.93;102909.59;5086478;28;20048;-48
2022/02/28 11:16:16;;;;;;;16.05;7.72;;;;;;;10.94;40.03;102915.06;5089989;28;20518;-53
2022/02/28 11:18:42;;;;;;;16.38;8.48;;;;;;;10.93;38.87;102913.38;5092513;28;20479;-52
2022/02/28 11:21:08;;;;;;;16.35;8.32;;;;;;;10.17;40.13;102900.03;5092477;28;20032;-50